Grace S — J8B4459 — position and weather

sailwx.info

Track history (hours):
 
Tides and Currents Weather Stations Pressure Air Temp Water Temp Dewpoint Dewpoint Depression Visibility Wind Speed Wind Dir Waves Ship Positions

Grace S

Last reported at 2018-Apr-24 22:29 UTC. Time now 2018-Apr-24 22:53 UTC.
Position N 45°48' E 013°14'.

Length 70 m; draft 2.9 m.

Type: Cargo ship. MMSI: 377757000.

Date/timePositionNaut miles runAvg speedWind from/ knotsBaromVisibWave heightAir tempDewpointWater temp
2018-Apr-24 22:29N 45°48' E 013°14'0 0.0
2018-Apr-24 21:56N 45°48' E 013°14'0 0.0
2018-Apr-24 21:29N 45°48' E 013°14'0 0.0
2018-Apr-24 20:56N 45°48' E 013°14'0 0.0
2018-Apr-24 20:29N 45°48' E 013°14'0 0.0
2018-Apr-24 19:53N 45°48' E 013°14'0 0.0
2018-Apr-24 19:29N 45°48' E 013°14'0 0.0
2018-Apr-24 18:59N 45°48' E 013°14'0 0.0
2018-Apr-24 18:29N 45°48' E 013°14'0 0.0
2018-Apr-24 17:59N 45°48' E 013°14'0 0.0
2018-Apr-24 17:29N 45°48' E 013°14'0 0.0
2018-Apr-24 17:00N 45°48' E 013°14'1 2.9
2018-Apr-24 16:30N 45°46' E 013°15'4 8.8
2018-Apr-24 16:00N 45°42' E 013°15'4 8.1
2018-Apr-24 15:30N 45°38' E 013°13'5 9.0
2018-Apr-24 15:00N 45°35' E 013°08'5 9.1
2018-Apr-24 14:30N 45°32' E 013°03'5 9.2
2018-Apr-24 14:00N 45°30' E 012°58'4 9.0
2018-Apr-24 13:30N 45°27' E 012°53'4 8.8
2018-Apr-24 13:00N 45°24' E 012°48'4 8.3
2018-Apr-24 12:30N 45°21' E 012°44'4 8.2
2018-Apr-24 12:00N 45°19' E 012°39'4 8.2
2018-Apr-24 11:30N 45°16' E 012°35'4 8.1
2018-Apr-24 10:59N 45°14' E 012°30'4 8.1
2018-Apr-24 10:30N 45°13' E 012°24'4 8.5
2018-Apr-24 10:00N 45°14' E 012°18'2 0.3
2018-Apr-24 03:12N 45°13' E 012°16'0 0.0
2018-Apr-24 02:59N 45°13' E 012°16'0 0.0
2018-Apr-24 02:30N 45°13' E 012°16'0 0.0
2018-Apr-24 02:00N 45°13' E 012°16'0 0.0
2018-Apr-24 00:03N 45°13' E 012°16'0 0.1
2018-Apr-24 00:00N 45°13' E 012°16'0 0.0
2018-Apr-23 23:20N 45°13' E 012°16'0 0.0
2018-Apr-23 22:59N 45°13' E 012°16'0 0.0
2018-Apr-23 20:52N 45°13' E 012°16'0 0.0
2018-Apr-23 20:30N 45°13' E 012°16'0 0.0
2018-Apr-23 19:12N 45°13' E 012°16'0 0.0
2018-Apr-23 18:53N 45°13' E 012°16'0 0.0
2018-Apr-23 18:30N 45°13' E 012°16'0 0.0
2018-Apr-23 17:59N 45°13' E 012°16'0 0.0
2018-Apr-23 17:30N 45°13' E 012°16'0 0.0
2018-Apr-23 17:00N 45°13' E 012°16'0 0.0
2018-Apr-23 16:30N 45°13' E 012°16'0 0.0
2018-Apr-23 15:38N 45°13' E 012°16'0 0.0
2018-Apr-23 15:22N 45°13' E 012°16'0 0.0
2018-Apr-23 15:00N 45°13' E 012°16'0 0.0
2018-Apr-23 14:27N 45°13' E 012°16'0 0.0
2018-Apr-23 14:00N 45°13' E 012°16'0 0.0
2018-Apr-23 13:30N 45°13' E 012°16'0 0.0
2018-Apr-23 12:59N 45°13' E 012°16'0 0.0
2018-Apr-23 12:30N 45°13' E 012°16'0 0.0
2018-Apr-23 12:00N 45°13' E 012°16'0 0.0
2018-Apr-23 11:30N 45°13' E 012°16'0 0.0
2018-Apr-23 11:00N 45°13' E 012°16'0 0.0
2018-Apr-23 10:24N 45°13' E 012°16'0 0.0
2018-Apr-23 09:59N 45°13' E 012°16'0 0.0
2018-Apr-23 00:37N 45°13' E 012°16'0 0.0
2018-Apr-23 00:29N 45°13' E 012°16'0 0.0
2018-Apr-22 23:58N 45°13' E 012°16'0 0.0
2018-Apr-22 23:22N 45°13' E 012°16'0 0.0
2018-Apr-22 23:00N 45°13' E 012°16'0 0.0
2018-Apr-22 22:29N 45°13' E 012°16'0 0.0
2018-Apr-22 21:43N 45°13' E 012°16'0 0.0
2018-Apr-22 21:30N 45°13' E 012°16'0 0.0
2018-Apr-22 20:59N 45°13' E 012°16'0 0.0
2018-Apr-22 20:24N 45°13' E 012°16'0 0.0
2018-Apr-22 19:52N 45°13' E 012°16'0 0.0
2018-Apr-22 11:39N 45°13' E 012°16'0 0.0
2018-Apr-22 11:30N 45°13' E 012°16'0 0.0
2018-Apr-22 10:30N 45°13' E 012°16'0 0.0
2018-Apr-22 08:52N 45°13' E 012°16'0 0.0
2018-Apr-22 08:21N 45°13' E 012°16'0 0.0
2018-Apr-22 07:56N 45°13' E 012°16'0 0.0
2018-Apr-21 23:21N 45°13' E 012°16'0 0.0
2018-Apr-21 23:00N 45°13' E 012°16'0 0.0
2018-Apr-21 22:30N 45°13' E 012°16'0 0.0
2018-Apr-21 21:59N 45°13' E 012°16'0 0.0
2018-Apr-21 21:28N 45°13' E 012°16'0 0.0
2018-Apr-21 20:58N 45°13' E 012°16'0 0.0
2018-Apr-21 20:30N 45°13' E 012°16'0 0.0
2018-Apr-21 20:00N 45°13' E 012°16'0 0.0
2018-Apr-21 19:30N 45°13' E 012°16'0 0.0
2018-Apr-21 17:38N 45°13' E 012°16'1 0.3
2018-Apr-21 13:34N 45°14' E 012°16'9 7.0
2018-Apr-21 12:14N 45°16' E 012°29'2 7.1
2018-Apr-21 11:58N 45°16' E 012°32'13 7.3
2018-Apr-21 10:10N 45°09' E 012°47'1 7.4
2018-Apr-21 09:59N 45°08' E 012°48'4 7.6
2018-Apr-21 09:30N 45°04' E 012°51'13 7.7
2018-Apr-21 07:46N 44°52' E 012°58'2 7.9
2018-Apr-21 07:30N 44°50' E 012°59'  
Track history (hours):
 
Tides and Currents Weather Stations Pressure Air Temp Water Temp Dewpoint Dewpoint Depression Visibility Wind Speed Wind Dir Waves Ship Positions

Grace S

Last reported at 2018-Apr-24 22:29 UTC. Time now 2018-Apr-24 22:53 UTC.
Position N 45°48' E 013°14'.

Length 70 m; draft 2.9 m.

Type: Cargo ship. MMSI: 377757000.

Date/timePositionNaut miles runAvg speedWind from/ knotsBaromVisibWave heightAir tempDewpointWater temp
2018-Apr-24 22:29N 45°48' E 013°14'0 0.0
2018-Apr-24 21:56N 45°48' E 013°14'0 0.0
2018-Apr-24 21:29N 45°48' E 013°14'0 0.0
2018-Apr-24 20:56N 45°48' E 013°14'0 0.0
2018-Apr-24 20:29N 45°48' E 013°14'0 0.0
2018-Apr-24 19:53N 45°48' E 013°14'0 0.0
2018-Apr-24 19:29N 45°48' E 013°14'0 0.0
2018-Apr-24 18:59N 45°48' E 013°14'0 0.0
2018-Apr-24 18:29N 45°48' E 013°14'0 0.0
2018-Apr-24 17:59N 45°48' E 013°14'0 0.0
2018-Apr-24 17:29N 45°48' E 013°14'0 0.0
2018-Apr-24 17:00N 45°48' E 013°14'1 2.9
2018-Apr-24 16:30N 45°46' E 013°15'4 8.8
2018-Apr-24 16:00N 45°42' E 013°15'4 8.1
2018-Apr-24 15:30N 45°38' E 013°13'5 9.0
2018-Apr-24 15:00N 45°35' E 013°08'5 9.1
2018-Apr-24 14:30N 45°32' E 013°03'5 9.2
2018-Apr-24 14:00N 45°30' E 012°58'4 9.0
2018-Apr-24 13:30N 45°27' E 012°53'4 8.8
2018-Apr-24 13:00N 45°24' E 012°48'4 8.3
2018-Apr-24 12:30N 45°21' E 012°44'4 8.2
2018-Apr-24 12:00N 45°19' E 012°39'4 8.2
2018-Apr-24 11:30N 45°16' E 012°35'4 8.1
2018-Apr-24 10:59N 45°14' E 012°30'4 8.1
2018-Apr-24 10:30N 45°13' E 012°24'4 8.5
2018-Apr-24 10:00N 45°14' E 012°18'2 0.3
2018-Apr-24 03:12N 45°13' E 012°16'0 0.0
2018-Apr-24 02:59N 45°13' E 012°16'0 0.0
2018-Apr-24 02:30N 45°13' E 012°16'0 0.0
2018-Apr-24 02:00N 45°13' E 012°16'0 0.0
2018-Apr-24 00:03N 45°13' E 012°16'0 0.1
2018-Apr-24 00:00N 45°13' E 012°16'0 0.0
2018-Apr-23 23:20N 45°13' E 012°16'0 0.0
2018-Apr-23 22:59N 45°13' E 012°16'0 0.0
2018-Apr-23 20:52N 45°13' E 012°16'0 0.0
2018-Apr-23 20:30N 45°13' E 012°16'0 0.0
2018-Apr-23 19:12N 45°13' E 012°16'0 0.0
2018-Apr-23 18:53N 45°13' E 012°16'0 0.0
2018-Apr-23 18:30N 45°13' E 012°16'0 0.0
2018-Apr-23 17:59N 45°13' E 012°16'0 0.0
2018-Apr-23 17:30N 45°13' E 012°16'0 0.0
2018-Apr-23 17:00N 45°13' E 012°16'0 0.0
2018-Apr-23 16:30N 45°13' E 012°16'0 0.0
2018-Apr-23 15:38N 45°13' E 012°16'0 0.0
2018-Apr-23 15:22N 45°13' E 012°16'0 0.0
2018-Apr-23 15:00N 45°13' E 012°16'0 0.0
2018-Apr-23 14:27N 45°13' E 012°16'0 0.0
2018-Apr-23 14:00N 45°13' E 012°16'0 0.0
2018-Apr-23 13:30N 45°13' E 012°16'0 0.0
2018-Apr-23 12:59N 45°13' E 012°16'0 0.0
2018-Apr-23 12:30N 45°13' E 012°16'0 0.0
2018-Apr-23 12:00N 45°13' E 012°16'0 0.0
2018-Apr-23 11:30N 45°13' E 012°16'0 0.0
2018-Apr-23 11:00N 45°13' E 012°16'0 0.0
2018-Apr-23 10:24N 45°13' E 012°16'0 0.0
2018-Apr-23 09:59N 45°13' E 012°16'0 0.0
2018-Apr-23 00:37N 45°13' E 012°16'0 0.0
2018-Apr-23 00:29N 45°13' E 012°16'0 0.0
2018-Apr-22 23:58N 45°13' E 012°16'0 0.0
2018-Apr-22 23:22N 45°13' E 012°16'0 0.0
2018-Apr-22 23:00N 45°13' E 012°16'0 0.0
2018-Apr-22 22:29N 45°13' E 012°16'0 0.0
2018-Apr-22 21:43N 45°13' E 012°16'0 0.0
2018-Apr-22 21:30N 45°13' E 012°16'0 0.0
2018-Apr-22 20:59N 45°13' E 012°16'0 0.0
2018-Apr-22 20:24N 45°13' E 012°16'0 0.0
2018-Apr-22 19:52N 45°13' E 012°16'0 0.0
2018-Apr-22 11:39N 45°13' E 012°16'0 0.0
2018-Apr-22 11:30N 45°13' E 012°16'0 0.0
2018-Apr-22 10:30N 45°13' E 012°16'0 0.0
2018-Apr-22 08:52N 45°13' E 012°16'0 0.0
2018-Apr-22 08:21N 45°13' E 012°16'0 0.0
2018-Apr-22 07:56N 45°13' E 012°16'0 0.0
2018-Apr-21 23:21N 45°13' E 012°16'0 0.0
2018-Apr-21 23:00N 45°13' E 012°16'0 0.0
2018-Apr-21 22:30N 45°13' E 012°16'0 0.0
2018-Apr-21 21:59N 45°13' E 012°16'0 0.0
2018-Apr-21 21:28N 45°13' E 012°16'0 0.0
2018-Apr-21 20:58N 45°13' E 012°16'0 0.0
2018-Apr-21 20:30N 45°13' E 012°16'0 0.0
2018-Apr-21 20:00N 45°13' E 012°16'0 0.0
2018-Apr-21 19:30N 45°13' E 012°16'0 0.0
2018-Apr-21 17:38N 45°13' E 012°16'1 0.3
2018-Apr-21 13:34N 45°14' E 012°16'9 7.0
2018-Apr-21 12:14N 45°16' E 012°29'2 7.1
2018-Apr-21 11:58N 45°16' E 012°32'13 7.3
2018-Apr-21 10:10N 45°09' E 012°47'1 7.4
2018-Apr-21 09:59N 45°08' E 012°48'4 7.6
2018-Apr-21 09:30N 45°04' E 012°51'13 7.7
2018-Apr-21 07:46N 44°52' E 012°58'2 7.9
2018-Apr-21 07:30N 44°50' E 012°59'  

Dump ship's entire track history